createdAt,value
2017-08-04T00:00:14.013Z,58.95
2017-08-04T00:00:54.472Z,58.75
2017-08-04T00:01:34.925Z,58.95
2017-08-04T00:02:15.380Z,58.56
2017-08-04T00:02:55.849Z,58.85
2017-08-04T00:03:36.307Z,58.65
2017-08-04T00:04:16.762Z,58.75
2017-08-04T00:04:57.216Z,58.65
2017-08-04T00:05:37.671Z,58.75
2017-08-04T00:06:18.134Z,58.75
2017-08-04T00:06:58.579Z,58.47
2017-08-04T00:07:39.044Z,58.56
2017-08-04T00:08:19.498Z,58.65
2017-08-04T00:08:59.957Z,58.75
2017-08-04T00:09:40.418Z,58.56
2017-08-04T00:10:20.880Z,58.47
2017-08-04T00:11:01.350Z,58.65
2017-08-04T00:11:41.792Z,58.47
2017-08-04T00:12:22.246Z,58.37
2017-08-04T00:13:02.705Z,58.47
2017-08-04T00:13:43.163Z,58.65
2017-08-04T00:14:23.621Z,58.47
2017-08-04T00:15:04.078Z,58.56
2017-08-04T00:15:44.533Z,58.65
2017-08-04T00:16:24.994Z,58.47
2017-08-04T00:17:05.442Z,58.47
2017-08-04T00:17:45.903Z,58.27
2017-08-04T00:18:26.352Z,58.37
2017-08-04T00:19:06.829Z,58.47
2017-08-04T00:19:47.258Z,58.47
2017-08-04T00:20:27.713Z,58.65
2017-08-04T00:21:08.176Z,58.56
2017-08-04T00:21:48.638Z,58.56
2017-08-04T00:22:29.091Z,58.75
2017-08-04T00:23:09.546Z,58.65
2017-08-04T00:23:49.991Z,58.85
2017-08-04T00:24:30.459Z,59.53
2017-08-04T00:25:10.907Z,59.23
2017-08-04T00:25:51.367Z,59.23
2017-08-04T00:26:31.821Z,59.23
2017-08-04T00:27:12.274Z,59.33
2017-08-04T00:27:52.743Z,59.23
2017-08-04T00:28:33.180Z,59.31
2017-08-04T00:29:13.632Z,59.21
2017-08-04T00:29:54.088Z,59.21
2017-08-04T00:30:34.543Z,59.11
2017-08-04T00:31:15.003Z,59.21
2017-08-04T00:31:55.456Z,59.31
2017-08-04T00:32:35.915Z,59.31
2017-08-04T00:33:16.367Z,59.23
2017-08-04T00:33:56.825Z,59.21
2017-08-04T00:34:37.301Z,59.31
2017-08-04T00:35:17.758Z,59.31
2017-08-04T00:35:58.213Z,59.23
2017-08-04T00:36:38.670Z,59.31
2017-08-04T00:37:19.124Z,59.31
2017-08-04T00:37:59.572Z,59.23
2017-08-04T00:38:40.026Z,59.33
2017-08-04T00:39:20.487Z,59.14
2017-08-04T00:40:00.949Z,59.14
2017-08-04T00:40:41.421Z,59.33
2017-08-04T00:41:21.858Z,59.23
2017-08-04T00:42:02.317Z,59.33
2017-08-04T00:42:42.770Z,59.33
2017-08-04T00:43:23.225Z,59.23
2017-08-04T00:44:03.683Z,59.33
2017-08-04T00:44:44.135Z,59.14
2017-08-04T00:45:24.595Z,59.33
2017-08-04T00:46:05.060Z,59.23
2017-08-04T00:46:45.520Z,59.23
2017-08-04T00:47:25.975Z,59.23
2017-08-04T00:48:06.428Z,59.14
2017-08-04T00:48:46.884Z,59.23
2017-08-04T00:49:27.339Z,59.53
2017-08-04T00:50:07.795Z,59.23
2017-08-04T00:50:48.248Z,59.23
2017-08-04T00:51:28.704Z,59.23
2017-08-04T00:52:09.162Z,59.23
2017-08-04T00:52:49.618Z,59.14
2017-08-04T00:53:30.084Z,59.23
2017-08-04T00:54:10.542Z,59.23
2017-08-04T00:54:51.012Z,59.23
2017-08-04T00:55:31.453Z,59.14
2017-08-04T00:56:11.911Z,59.33
2017-08-04T00:56:52.368Z,59.33
2017-08-04T00:57:32.823Z,59.14
2017-08-04T00:58:13.281Z,59.33
2017-08-04T00:58:53.740Z,59.23
2017-08-04T00:59:34.204Z,59.33
2017-08-04T01:00:14.661Z,59.33
2017-08-04T01:00:55.102Z,59.14
2017-08-04T01:01:35.557Z,59.23
2017-08-04T01:02:16.015Z,59.23
2017-08-04T01:02:56.470Z,59.23
2017-08-04T01:03:36.922Z,59.14
2017-08-04T01:04:17.386Z,59.23
2017-08-04T01:04:57.846Z,59.43
2017-08-04T01:05:38.309Z,59.23
2017-08-04T01:06:18.765Z,58.85
2017-08-04T01:06:59.226Z,59.23
2017-08-04T01:07:39.686Z,59.23
2017-08-04T01:08:20.144Z,59.43
2017-08-04T01:09:00.602Z,59.23
2017-08-04T01:09:41.041Z,59.33
2017-08-04T01:10:21.491Z,58.95
2017-08-04T01:11:01.948Z,58.85
2017-08-04T01:11:42.406Z,59.05
2017-08-04T01:12:22.859Z,58.95
2017-08-04T01:13:03.315Z,59.01
2017-08-04T01:13:43.779Z,59.43
2017-08-04T01:14:24.232Z,58.92
2017-08-04T01:15:04.684Z,59.05
2017-08-04T01:15:45.138Z,58.82
2017-08-04T01:16:25.601Z,58.92
2017-08-04T01:17:06.058Z,58.92
2017-08-04T01:17:46.505Z,58.65
2017-08-04T01:18:26.961Z,58.63
2017-08-04T01:19:07.418Z,58.95
2017-08-04T01:19:47.876Z,58.47
2017-08-04T01:20:28.340Z,58.24
2017-08-04T01:21:08.795Z,58.24
2017-08-04T01:21:49.254Z,58.53
2017-08-04T01:22:29.713Z,58.53
2017-08-04T01:23:10.166Z,58.63
2017-08-04T01:23:50.633Z,58.34
2017-08-04T01:24:31.085Z,58.44
2017-08-04T01:25:11.547Z,58.44
2017-08-04T01:25:52.020Z,58.53
2017-08-04T01:26:32.452Z,58.24
2017-08-04T01:27:12.904Z,58.24
2017-08-04T01:27:53.354Z,58.24
2017-08-04T01:28:33.812Z,58.24
2017-08-04T01:29:14.270Z,58.44
2017-08-04T01:29:54.723Z,58.44
2017-08-04T01:30:35.196Z,58.63
2017-08-04T01:31:15.656Z,58.53
2017-08-04T01:31:56.111Z,58.53
2017-08-04T01:32:36.558Z,58.34
2017-08-04T01:33:17.014Z,58.34
2017-08-04T01:33:57.472Z,58.53
2017-08-04T01:34:37.927Z,58.44
2017-08-04T01:35:18.384Z,58.44
2017-08-04T01:35:58.833Z,58.72
2017-08-04T01:36:39.288Z,58.63
2017-08-04T01:37:19.742Z,58.53
2017-08-04T01:38:00.195Z,58.44
2017-08-04T01:38:40.652Z,58.53
2017-08-04T01:39:21.109Z,58.63
2017-08-04T01:40:01.629Z,58.53
2017-08-04T01:40:42.086Z,58.53
2017-08-04T01:41:22.542Z,58.63
2017-08-04T01:42:03.004Z,58.53
2017-08-04T01:42:43.461Z,58.53
2017-08-04T01:43:23.926Z,58.44
2017-08-04T01:44:04.382Z,58.92
2017-08-04T01:44:44.837Z,58.82
2017-08-04T01:45:25.299Z,58.53
2017-08-04T01:46:05.755Z,58.72
2017-08-04T01:46:46.212Z,58.53
2017-08-04T01:47:26.676Z,58.82
2017-08-04T01:48:07.132Z,58.82
2017-08-04T01:48:47.585Z,58.82
2017-08-04T01:49:28.041Z,58.53
2017-08-04T01:50:08.495Z,58.53
2017-08-04T01:50:50.759Z,58.63
2017-08-04T01:51:31.218Z,58.24
2017-08-04T01:52:11.685Z,58.44
2017-08-04T01:52:52.155Z,58.14
2017-08-04T01:53:32.598Z,58.34
2017-08-04T01:54:13.042Z,58.24
2017-08-04T01:54:53.497Z,58.34
2017-08-04T01:55:33.943Z,58.04
2017-08-04T01:56:14.396Z,58.24
2017-08-04T01:56:54.866Z,58.24
2017-08-04T01:57:35.327Z,58.34
2017-08-04T01:58:15.769Z,58.14
2017-08-04T01:58:56.215Z,58.14
2017-08-04T01:59:36.681Z,58.14
2017-08-04T02:00:17.149Z,58.34
2017-08-04T02:00:57.590Z,58.14
2017-08-04T02:01:38.051Z,58.34
2017-08-04T02:02:18.509Z,58.34
2017-08-04T02:02:58.966Z,58.4
2017-08-04T02:03:39.424Z,58.34
2017-08-04T02:04:19.881Z,58.24
2017-08-04T02:05:00.340Z,58.44
2017-08-04T02:05:40.798Z,58.31
2017-08-04T02:06:21.257Z,58.4
2017-08-04T02:07:01.745Z,58.5
2017-08-04T02:07:42.183Z,58.63
2017-08-04T02:08:22.622Z,58.5
2017-08-04T02:09:03.082Z,58.44
2017-08-04T02:09:43.538Z,58.4
2017-08-04T02:10:23.990Z,58.53
2017-08-04T02:11:04.459Z,58.34
2017-08-04T02:11:44.913Z,58.31
2017-08-04T02:12:25.372Z,58.31
2017-08-04T02:13:05.829Z,58.21
2017-08-04T02:13:46.289Z,58.14
2017-08-04T02:14:26.749Z,57.86
2017-08-04T02:15:07.202Z,57.82
2017-08-04T02:15:47.664Z,57.82
2017-08-04T02:16:28.114Z,57.95
2017-08-04T02:17:08.585Z,57.92
2017-08-04T02:17:49.044Z,57.92
2017-08-04T02:18:29.495Z,57.92
2017-08-04T02:19:09.953Z,57.95
2017-08-04T02:19:50.411Z,57.92
2017-08-04T02:20:30.863Z,57.82
2017-08-04T02:21:11.322Z,57.73
2017-08-04T02:21:51.776Z,57.73
2017-08-04T02:22:32.227Z,57.92
2017-08-04T02:23:12.685Z,57.92
2017-08-04T02:23:53.145Z,57.82
2017-08-04T02:24:33.600Z,58.02
2017-08-04T02:25:14.057Z,58.14
2017-08-04T02:25:54.516Z,57.92
2017-08-04T02:26:34.970Z,58.21
2017-08-04T02:27:15.430Z,57.73
2017-08-04T02:27:55.881Z,57.82
2017-08-04T02:28:36.349Z,57.73
2017-08-04T02:29:16.807Z,57.82
2017-08-04T02:29:57.276Z,57.92
2017-08-04T02:30:37.726Z,57.92
2017-08-04T02:31:18.174Z,58.02
2017-08-04T02:31:58.624Z,57.95
2017-08-04T02:32:39.087Z,57.76
2017-08-04T02:33:19.544Z,57.73
2017-08-04T02:33:59.991Z,57.86
2017-08-04T02:34:40.455Z,57.86
2017-08-04T02:35:20.915Z,57.95
2017-08-04T02:36:01.372Z,58.14
2017-08-04T02:36:41.829Z,58.04
2017-08-04T02:37:22.285Z,58.14
2017-08-04T02:38:02.747Z,58.14
2017-08-04T02:38:43.204Z,58.14
2017-08-04T02:39:23.655Z,57.76
2017-08-04T02:40:04.107Z,57.76
2017-08-04T02:40:44.570Z,57.66
2017-08-04T02:41:25.029Z,58.04
2017-08-04T02:42:05.489Z,58.04
2017-08-04T02:42:45.945Z,57.76
2017-08-04T02:43:26.403Z,57.76
2017-08-04T02:44:06.891Z,58.14
2017-08-04T02:44:47.346Z,58.14
2017-08-04T02:45:27.810Z,58.04
2017-08-04T02:46:08.267Z,58.04
2017-08-04T02:46:48.728Z,58.21
2017-08-04T02:47:29.189Z,58.04
2017-08-04T02:48:09.644Z,57.92
2017-08-04T02:48:50.105Z,58.21
2017-08-04T02:49:30.555Z,58.12
2017-08-04T02:50:11.006Z,58.04
2017-08-04T02:50:51.459Z,58.21
2017-08-04T02:51:31.906Z,58.02
2017-08-04T02:52:12.390Z,58.02
2017-08-04T02:52:52.802Z,57.82
2017-08-04T02:55:10.682Z,57.92
2017-08-04T02:55:51.177Z,57.92
2017-08-04T02:56:31.646Z,58.02
2017-08-04T02:57:12.089Z,57.82
2017-08-04T02:57:52.550Z,57.92
2017-08-04T02:58:33.014Z,57.82
2017-08-04T02:59:13.446Z,57.82
2017-08-04T02:59:53.900Z,57.82
2017-08-04T03:00:34.356Z,57.92
2017-08-04T03:01:14.816Z,58.02
2017-08-04T03:01:55.260Z,57.82
2017-08-04T03:02:35.709Z,58.21
2017-08-04T03:03:16.157Z,57.82
2017-08-04T03:03:56.605Z,57.82
2017-08-04T03:04:37.041Z,57.82
2017-08-04T03:05:17.513Z,58.21
2017-08-04T03:05:57.958Z,57.73
2017-08-04T03:06:38.404Z,57.73
2017-08-04T03:07:18.859Z,57.73
2017-08-04T03:07:59.307Z,58.12
2017-08-04T03:08:39.767Z,58.02
2017-08-04T03:09:20.220Z,58.12
2017-08-04T03:10:00.676Z,58.02
2017-08-04T03:10:41.133Z,58.21
2017-08-04T03:11:21.583Z,58.02
2017-08-04T03:12:02.049Z,58.21
2017-08-04T03:12:42.493Z,58.21
2017-08-04T03:13:22.956Z,58.02
2017-08-04T03:14:03.413Z,58.21
2017-08-04T03:14:43.865Z,58.21
2017-08-04T03:15:24.320Z,58.12
2017-08-04T03:16:04.773Z,58.31
2017-08-04T03:16:45.231Z,58.02
2017-08-04T03:17:25.692Z,58.02
2017-08-04T03:18:06.150Z,58.21
2017-08-04T03:18:46.672Z,58.21
2017-08-04T03:19:27.123Z,58.21
2017-08-04T03:20:07.561Z,58.02
2017-08-04T03:20:48.013Z,58.12
2017-08-04T03:21:28.468Z,58.02
2017-08-04T03:22:08.929Z,58.02
2017-08-04T03:22:49.387Z,58.12
2017-08-04T03:23:29.846Z,58.21
2017-08-04T03:24:10.302Z,58.12
2017-08-04T03:24:50.756Z,57.92
2017-08-04T03:25:31.204Z,58.12
2017-08-04T03:26:11.664Z,57.92
2017-08-04T03:26:52.118Z,57.73
2017-08-04T03:27:32.576Z,57.63
2017-08-04T03:28:13.034Z,57.92
2017-08-04T03:28:53.487Z,58.02
2017-08-04T03:29:33.937Z,57.63
2017-08-04T03:30:14.390Z,57.63
2017-08-04T03:30:54.845Z,58.02
2017-08-04T03:31:35.304Z,57.92
2017-08-04T03:32:15.762Z,57.92
2017-08-04T03:32:56.221Z,57.92
2017-08-04T03:33:36.679Z,58.02
2017-08-04T03:34:17.130Z,57.73
2017-08-04T03:34:57.585Z,57.82
2017-08-04T03:35:38.040Z,57.73
2017-08-04T03:36:18.487Z,58.02
2017-08-04T03:36:58.941Z,57.82
2017-08-04T03:37:39.394Z,57.76
2017-08-04T03:38:19.853Z,58.02
2017-08-04T03:39:00.314Z,58.02
2017-08-04T03:39:40.751Z,57.92
2017-08-04T03:40:21.201Z,57.82
2017-08-04T03:41:01.667Z,57.92
2017-08-04T03:41:42.116Z,57.82
2017-08-04T03:42:22.571Z,57.82
2017-08-04T03:43:03.060Z,57.86
2017-08-04T03:43:43.554Z,58.21
2017-08-04T03:44:24.011Z,58.34
2017-08-04T03:45:04.471Z,57.95
2017-08-04T03:45:44.929Z,58.34
2017-08-04T03:46:25.390Z,58.31
2017-08-04T03:47:05.853Z,58.53
2017-08-04T03:47:46.315Z,58.44
2017-08-04T03:48:26.804Z,58.24
2017-08-04T03:49:07.256Z,58.34
2017-08-04T03:49:47.714Z,58.53
2017-08-04T03:50:28.166Z,58.44
2017-08-04T03:51:08.624Z,58.24
2017-08-04T03:51:49.076Z,57.86
2017-08-04T03:52:29.532Z,57.86
2017-08-04T03:53:10.037Z,57.95
2017-08-04T03:53:50.523Z,58.53
2017-08-04T03:54:30.972Z,58.44
2017-08-04T03:55:11.428Z,58.27
2017-08-04T03:55:51.876Z,58.37
2017-08-04T03:56:32.364Z,58.27
2017-08-04T03:57:12.828Z,58.17
2017-08-04T03:57:53.286Z,58.37
2017-08-04T03:58:33.737Z,58.65
2017-08-04T03:59:14.199Z,58.85
2017-08-04T03:59:54.659Z,58.85
2017-08-04T04:00:35.124Z,58.56
2017-08-04T04:01:15.579Z,58.65
2017-08-04T04:01:56.038Z,58.65
2017-08-04T04:02:36.492Z,58.65
2017-08-04T04:03:16.945Z,58.56
2017-08-04T04:03:57.399Z,58.56
2017-08-04T04:04:37.855Z,58.56
2017-08-04T04:05:18.312Z,58.47
2017-08-04T04:05:58.772Z,58.65
2017-08-04T04:06:39.234Z,58.65
2017-08-04T04:07:19.696Z,58.65
2017-08-04T04:08:00.143Z,58.65
2017-08-04T04:08:40.601Z,58.56
2017-08-04T04:09:21.058Z,58.49
2017-08-04T04:10:01.510Z,58.65
2017-08-04T04:10:41.973Z,58.59
2017-08-04T04:11:22.422Z,58.69
2017-08-04T04:12:02.877Z,58.69
2017-08-04T04:12:43.331Z,58.59
2017-08-04T04:13:23.794Z,58.59
2017-08-04T04:14:04.229Z,58.59
2017-08-04T04:14:44.691Z,58.65
2017-08-04T04:15:25.193Z,58.59
2017-08-04T04:16:05.655Z,58.65
2017-08-04T04:16:46.108Z,58.59
2017-08-04T04:17:26.562Z,58.59
2017-08-04T04:18:06.998Z,58.78
2017-08-04T04:18:47.459Z,58.59
2017-08-04T04:19:27.909Z,58.69
2017-08-04T04:20:08.374Z,58.69
2017-08-04T04:20:48.812Z,58.69
2017-08-04T04:21:29.265Z,58.59
2017-08-04T04:22:09.723Z,58.69
2017-08-04T04:22:50.164Z,58.59
2017-08-04T04:23:30.615Z,58.59
2017-08-04T04:24:11.067Z,58.78
2017-08-04T04:24:51.519Z,58.78
2017-08-04T04:25:31.988Z,58.59
2017-08-04T04:26:12.445Z,58.69
2017-08-04T04:26:52.903Z,58.69
2017-08-04T04:27:33.357Z,58.59
2017-08-04T04:28:13.816Z,58.98
2017-08-04T04:28:54.266Z,58.78
2017-08-04T04:29:34.719Z,58.49
2017-08-04T04:30:15.172Z,58.59
2017-08-04T04:30:55.628Z,58.49
2017-08-04T04:31:36.088Z,58.59
2017-08-04T04:32:16.541Z,58.49
2017-08-04T04:32:56.998Z,58.59
2017-08-04T04:33:37.465Z,58.49
2017-08-04T04:34:17.923Z,58.39
2017-08-04T04:34:58.384Z,58.59
2017-08-04T04:35:38.824Z,58.39
2017-08-04T04:36:19.297Z,58.49
2017-08-04T04:36:59.734Z,58.69
2017-08-04T04:37:40.191Z,58.69
2017-08-04T04:38:20.657Z,58.49
2017-08-04T04:39:01.115Z,58.59
2017-08-04T04:39:41.612Z,58.49
2017-08-04T04:40:22.024Z,58.49
2017-08-04T04:41:02.470Z,58.49
2017-08-04T04:41:42.922Z,58.39
2017-08-04T04:42:23.372Z,58.49
2017-08-04T04:43:03.838Z,58.49
2017-08-04T04:43:44.290Z,58.49
2017-08-04T04:44:24.743Z,58.59
2017-08-04T04:45:05.209Z,58.78
2017-08-04T04:45:45.669Z,58.59
2017-08-04T04:46:26.117Z,58.69
2017-08-04T04:47:06.578Z,58.98
2017-08-04T04:47:47.029Z,58.98
2017-08-04T04:48:27.484Z,58.78
2017-08-04T04:49:07.934Z,58.69
2017-08-04T04:49:48.391Z,58.98
2017-08-04T04:50:28.840Z,58.98
2017-08-04T04:51:09.297Z,58.98
2017-08-04T04:51:49.747Z,58.98
2017-08-04T04:52:30.201Z,58.98
2017-08-04T04:53:10.652Z,59.27
2017-08-04T04:53:51.102Z,59.27
2017-08-04T04:54:31.562Z,59.27
2017-08-04T04:55:12.017Z,59.46
2017-08-04T04:55:52.498Z,59.17
2017-08-04T04:56:32.937Z,59.27
2017-08-04T04:57:13.387Z,59.17
2017-08-04T04:57:53.845Z,59.36
2017-08-04T04:58:34.304Z,59.17
2017-08-04T04:59:14.774Z,59.17
2017-08-04T04:59:55.207Z,59.17
2017-08-04T05:00:35.677Z,59.36
2017-08-04T05:01:16.126Z,59.27
2017-08-04T05:01:56.583Z,59.17
2017-08-04T05:02:37.043Z,59.07
2017-08-04T05:03:17.497Z,59.27
2017-08-04T05:03:57.966Z,59.17
2017-08-04T05:04:38.429Z,59.36
2017-08-04T05:05:18.884Z,59.36
2017-08-04T05:05:59.337Z,59.36
2017-08-04T05:06:39.795Z,59.36
2017-08-04T05:07:20.243Z,59.27
2017-08-04T05:08:00.691Z,59.36
2017-08-04T05:08:41.149Z,59.27
2017-08-04T05:09:21.585Z,59.46
2017-08-04T05:10:02.053Z,59.36
2017-08-04T05:10:42.486Z,59.27
2017-08-04T05:11:22.957Z,59.36
2017-08-04T05:12:03.384Z,59.17
2017-08-04T05:12:43.831Z,59.27
2017-08-04T05:13:24.277Z,59.27
2017-08-04T05:14:04.727Z,59.27
2017-08-04T05:14:45.186Z,59.27
2017-08-04T05:15:25.635Z,59.27
2017-08-04T05:16:06.084Z,59.07
2017-08-04T05:16:46.538Z,59.07
2017-08-04T05:17:26.998Z,58.98
2017-08-04T05:18:07.461Z,59.2
2017-08-04T05:18:47.921Z,59.36
2017-08-04T05:19:28.382Z,59.46
2017-08-04T05:20:08.833Z,59.36
2017-08-04T05:20:49.292Z,59.46
2017-08-04T05:21:29.746Z,59.36
2017-08-04T05:22:10.195Z,59.07
2017-08-04T05:22:50.654Z,59.36
2017-08-04T05:23:31.113Z,59.46
2017-08-04T05:24:11.567Z,59.36
2017-08-04T05:24:52.022Z,59.36
2017-08-04T05:25:32.478Z,59.07
2017-08-04T05:26:12.920Z,59.17
2017-08-04T05:26:53.369Z,59.36
2017-08-04T05:27:33.824Z,59.27
2017-08-04T05:28:14.274Z,59.27
2017-08-04T05:28:54.732Z,59.27
2017-08-04T05:29:35.189Z,59.17
2017-08-04T05:30:15.644Z,59.27
2017-08-04T05:30:56.109Z,59.36
2017-08-04T05:31:36.562Z,59.36
2017-08-04T05:32:17.016Z,59.56
2017-08-04T05:32:57.469Z,59.56
2017-08-04T05:33:37.925Z,59.36
2017-08-04T05:34:18.383Z,59.3
2017-08-04T05:34:58.835Z,59.36
2017-08-04T05:35:39.282Z,59.36
2017-08-04T05:36:19.732Z,59.46
2017-08-04T05:37:00.202Z,59.36
2017-08-04T05:37:40.621Z,59.49
2017-08-04T05:38:21.066Z,59.17
2017-08-04T05:39:01.519Z,59.27
2017-08-04T05:39:41.972Z,59.27
2017-08-04T05:40:22.424Z,59.2
2017-08-04T05:41:02.880Z,59.2
2017-08-04T05:41:43.336Z,59.3
2017-08-04T05:42:23.795Z,59.59
2017-08-04T05:43:04.253Z,59.3
2017-08-04T05:43:44.694Z,59.39
2017-08-04T05:44:25.182Z,59.59
2017-08-04T05:45:05.655Z,59.39
2017-08-04T05:45:46.093Z,59.39
2017-08-04T05:46:26.553Z,59.59
2017-08-04T05:47:07.034Z,59.2
2017-08-04T05:47:47.498Z,59.3
2017-08-04T05:48:27.951Z,59.59
2017-08-04T05:49:08.413Z,59.49
2017-08-04T05:49:48.873Z,59.59
2017-08-04T05:50:29.344Z,59.49
2017-08-04T05:51:09.799Z,59.39
2017-08-04T05:51:50.252Z,59.49
2017-08-04T05:52:30.716Z,59.39
2017-08-04T05:53:11.164Z,59.39
2017-08-04T05:53:51.617Z,59.1
2017-08-04T05:54:32.075Z,59.39
2017-08-04T05:55:12.526Z,59.39
2017-08-04T05:55:52.990Z,59.1
2017-08-04T05:56:33.441Z,59.49
2017-08-04T05:57:13.896Z,59.3
2017-08-04T05:57:54.348Z,59.3
2017-08-04T05:58:34.813Z,59.2
2017-08-04T05:59:15.273Z,59.3
2017-08-04T05:59:55.716Z,59.3
2017-08-04T06:00:36.173Z,59.2
2017-08-04T06:01:16.618Z,59.2
2017-08-04T06:01:57.070Z,59.39
2017-08-04T06:02:37.527Z,59.3
2017-08-04T06:03:17.982Z,59.39
2017-08-04T06:03:58.441Z,59.39
2017-08-04T06:04:38.906Z,59.39
2017-08-04T06:05:19.357Z,59.39
2017-08-04T06:05:59.817Z,59.39
2017-08-04T06:06:40.261Z,59.49
2017-08-04T06:07:20.714Z,59.39
2017-08-04T06:08:01.173Z,59.39
2017-08-04T06:08:41.646Z,59.39
2017-08-04T06:09:22.101Z,59.59
2017-08-04T06:10:02.556Z,59.3
2017-08-04T06:10:42.999Z,59.49
2017-08-04T06:11:23.459Z,59.59
2017-08-04T06:12:03.914Z,59.59
2017-08-04T06:12:44.371Z,59.59
2017-08-04T06:13:24.825Z,59.59
2017-08-04T06:14:05.285Z,59.49
2017-08-04T06:14:45.741Z,59.3
2017-08-04T06:15:26.193Z,59.59
2017-08-04T06:16:06.646Z,59.39
2017-08-04T06:16:47.104Z,59.59
2017-08-04T06:17:27.565Z,59.78
2017-08-04T06:18:08.021Z,59.39
2017-08-04T06:18:48.479Z,59.59
2017-08-04T06:19:28.928Z,59.3
2017-08-04T06:20:09.389Z,59.59
2017-08-04T06:20:49.845Z,59.59
2017-08-04T06:21:30.301Z,59.59
2017-08-04T06:22:10.759Z,59.59
2017-08-04T06:22:51.212Z,59.59
2017-08-04T06:23:31.666Z,59.59
2017-08-04T06:24:12.120Z,59.59
2017-08-04T06:24:52.580Z,59.49
2017-08-04T06:25:33.038Z,59.49
2017-08-04T06:26:13.490Z,59.39
2017-08-04T06:26:53.951Z,59.3
2017-08-04T06:27:34.407Z,59.39
2017-08-04T06:28:14.872Z,59.49
2017-08-04T06:28:55.313Z,59.39
2017-08-04T06:29:35.772Z,59.3
2017-08-04T06:30:16.225Z,59.3
2017-08-04T06:30:56.679Z,59.3
2017-08-04T06:31:37.137Z,59.49
2017-08-04T06:32:17.593Z,59.3
2017-08-04T06:32:58.049Z,59.2
2017-08-04T06:33:38.522Z,59.3
2017-08-04T06:34:18.979Z,59.39
2017-08-04T06:34:59.437Z,59.2
2017-08-04T06:35:39.890Z,59.49
2017-08-04T06:36:20.346Z,59.39
2017-08-04T06:37:00.801Z,59.49
2017-08-04T06:37:41.258Z,59.59
2017-08-04T06:38:21.715Z,59.59
2017-08-04T06:39:02.179Z,59.39
2017-08-04T06:39:42.635Z,59.1
2017-08-04T06:40:23.091Z,59.49
2017-08-04T06:41:03.552Z,59.39
2017-08-04T06:41:44.014Z,59.39
2017-08-04T06:42:24.471Z,59.39
2017-08-04T06:43:04.931Z,59.42
2017-08-04T06:43:45.385Z,59.03
2017-08-04T06:44:25.843Z,59.03
2017-08-04T06:45:06.304Z,59.1
2017-08-04T06:45:46.758Z,59.33
2017-08-04T06:46:27.220Z,58.94
2017-08-04T06:47:07.678Z,59.39
2017-08-04T06:47:48.135Z,59.23
2017-08-04T06:48:28.594Z,59.52
2017-08-04T06:49:09.056Z,59.42
2017-08-04T06:49:49.514Z,59.23
2017-08-04T06:50:29.972Z,59.13
2017-08-04T06:51:10.425Z,59.39
2017-08-04T06:51:50.873Z,59.33
2017-08-04T06:52:31.318Z,59.23
2017-08-04T06:53:11.775Z,59.23
2017-08-04T06:53:52.257Z,59.23
2017-08-04T06:54:32.689Z,59.23
2017-08-04T06:55:13.144Z,59.23
2017-08-04T06:55:53.598Z,59.3
2017-08-04T06:56:34.067Z,59.42
2017-08-04T06:57:14.518Z,59.33
2017-08-04T06:57:54.972Z,59.42
2017-08-04T06:58:35.432Z,59.33
2017-08-04T06:59:15.888Z,59.42
2017-08-04T06:59:56.351Z,59.33
2017-08-04T07:00:36.815Z,59.23
2017-08-04T07:01:17.272Z,59.33
2017-08-04T07:01:57.715Z,59.3
2017-08-04T07:02:38.164Z,59.33
2017-08-04T07:03:18.615Z,59.3
2017-08-04T07:03:59.069Z,59.13
2017-08-04T07:04:39.533Z,59.33
2017-08-04T07:05:19.980Z,59.23
2017-08-04T07:06:00.434Z,59.33
2017-08-04T07:06:40.891Z,59.03
2017-08-04T07:07:21.347Z,59.13
2017-08-04T07:08:01.802Z,58.84
2017-08-04T07:08:42.260Z,58.84
2017-08-04T07:09:22.714Z,58.94
2017-08-04T07:10:03.171Z,58.94
2017-08-04T07:10:43.626Z,58.94
2017-08-04T07:11:24.089Z,59.03
2017-08-04T07:12:04.541Z,58.84
2017-08-04T07:12:44.993Z,58.74
2017-08-04T07:13:25.447Z,59.03
2017-08-04T07:14:05.900Z,59.03
2017-08-04T07:14:46.352Z,58.94
2017-08-04T07:15:26.805Z,59.33
2017-08-04T07:16:07.259Z,59.33
2017-08-04T07:16:47.732Z,59.33
2017-08-04T07:17:28.181Z,59.33
2017-08-04T07:18:08.639Z,59.23
2017-08-04T07:18:49.105Z,59.23
2017-08-04T07:19:29.558Z,59.33
2017-08-04T07:20:10.021Z,59.42
2017-08-04T07:20:50.471Z,59.33
2017-08-04T07:21:30.929Z,59.33
2017-08-04T07:22:11.387Z,59.33
2017-08-04T07:22:51.838Z,59.3
2017-08-04T07:23:32.292Z,59.23
2017-08-04T07:24:12.758Z,59.13
2017-08-04T07:24:53.213Z,59.33
2017-08-04T07:25:33.668Z,59.1
2017-08-04T07:26:14.128Z,59.13
2017-08-04T07:26:54.582Z,59.33
2017-08-04T07:27:35.051Z,59.23
2017-08-04T07:28:15.510Z,59.42
2017-08-04T07:28:55.957Z,59.33
2017-08-04T07:29:36.402Z,59.42
2017-08-04T07:30:16.860Z,59.23
2017-08-04T07:30:57.327Z,59.33
2017-08-04T07:31:37.792Z,59.33
2017-08-04T07:32:18.240Z,59.52
2017-08-04T07:32:58.696Z,59.13
2017-08-04T07:33:39.152Z,58.94
2017-08-04T07:34:19.611Z,58.84
2017-08-04T07:35:00.070Z,58.84
2017-08-04T07:35:40.527Z,59.13
2017-08-04T07:36:20.987Z,58.65
2017-08-04T07:37:01.437Z,58.65
2017-08-04T07:37:41.964Z,58.65
2017-08-04T07:38:22.369Z,58.74
2017-08-04T07:39:02.823Z,58.65
2017-08-04T07:39:43.282Z,58.77
2017-08-04T07:40:23.742Z,58.67
2017-08-04T07:41:04.193Z,58.77
2017-08-04T07:41:44.657Z,58.74
2017-08-04T07:42:25.121Z,58.67
2017-08-04T07:43:05.577Z,58.97
2017-08-04T07:43:46.033Z,58.77
2017-08-04T07:44:26.489Z,58.58
2017-08-04T07:45:06.945Z,59.06
2017-08-04T07:45:47.403Z,58.58
2017-08-04T07:46:27.855Z,58.58
2017-08-04T07:47:08.314Z,58.58
2017-08-04T07:47:48.773Z,58.58
2017-08-04T07:48:29.232Z,58
2017-08-04T07:49:09.688Z,58.09
2017-08-04T07:49:50.143Z,58.29
2017-08-04T07:50:30.620Z,57.9
2017-08-04T07:51:11.094Z,58.03
2017-08-04T07:51:51.541Z,58.09
2017-08-04T07:52:31.988Z,58.03
2017-08-04T07:53:12.449Z,58.03
2017-08-04T07:53:52.902Z,58.22
2017-08-04T07:54:33.365Z,58
2017-08-04T07:55:13.824Z,58.22
2017-08-04T07:55:54.283Z,58.12
2017-08-04T07:56:34.745Z,58.03
2017-08-04T07:57:15.203Z,58.12
2017-08-04T07:57:55.657Z,58
2017-08-04T07:58:36.106Z,58.09
2017-08-04T07:59:16.568Z,58
2017-08-04T07:59:57.026Z,58
2017-08-04T08:00:37.471Z,58.39
2017-08-04T08:01:17.926Z,58.39
2017-08-04T08:01:58.392Z,58.19
2017-08-04T08:02:38.865Z,58.19
2017-08-04T08:03:19.321Z,58.39
2017-08-04T08:03:59.765Z,58.39
2017-08-04T08:04:40.217Z,58.39
2017-08-04T08:05:20.674Z,58.09
2017-08-04T08:06:01.133Z,58
2017-08-04T08:06:41.588Z,58.09
2017-08-04T08:07:22.053Z,57.9
2017-08-04T08:08:02.503Z,58.19
2017-08-04T08:08:42.962Z,58.29
2017-08-04T08:09:23.403Z,58.19
2017-08-04T08:10:03.867Z,58.39
2017-08-04T08:10:44.317Z,58.19
2017-08-04T08:11:24.774Z,58.19
2017-08-04T08:12:05.231Z,58.19
2017-08-04T08:12:45.688Z,58.09
2017-08-04T08:13:26.142Z,58.09
2017-08-04T08:14:06.623Z,58.22
2017-08-04T08:14:47.503Z,58.29
2017-08-04T08:15:27.606Z,58.09
2017-08-04T08:16:08.061Z,58.19
2017-08-04T08:16:48.506Z,58.39
2017-08-04T08:17:28.955Z,58.39
2017-08-04T08:18:09.409Z,58.19
2017-08-04T08:18:49.865Z,58.19
2017-08-04T08:19:30.319Z,58.09
2017-08-04T08:20:10.779Z,58.19
2017-08-04T08:20:51.241Z,58.09
2017-08-04T08:21:31.694Z,58
2017-08-04T08:22:12.145Z,58.29
2017-08-04T08:22:52.627Z,58.29
2017-08-04T08:23:33.505Z,58.09
2017-08-04T08:24:13.921Z,58.39
2017-08-04T08:24:54.428Z,58.31
2017-08-04T08:25:34.886Z,57.9
2017-08-04T08:26:15.348Z,58
2017-08-04T08:26:55.796Z,58
2017-08-04T08:27:36.248Z,58.09
2017-08-04T08:28:16.705Z,58
2017-08-04T08:28:57.149Z,58.09
2017-08-04T08:29:37.755Z,58
2017-08-04T08:30:18.070Z,58.09
2017-08-04T08:30:58.530Z,57.9
2017-08-04T08:32:56.552Z,58.22
2017-08-04T08:33:37.158Z,58.03
2017-08-04T08:34:17.456Z,58.51
2017-08-04T08:34:57.913Z,58.31
2017-08-04T08:35:38.394Z,58.22
2017-08-04T08:36:18.839Z,58.31
2017-08-04T08:36:59.307Z,57.93
2017-08-04T08:37:39.759Z,58.12
2017-08-04T08:38:20.221Z,58.22
2017-08-04T08:39:00.682Z,57.93
2017-08-04T08:39:41.132Z,57.73
2017-08-04T08:40:21.580Z,58.03
2017-08-04T08:41:02.081Z,58.12
2017-08-04T08:41:42.517Z,58.22
2017-08-04T08:42:22.968Z,58.12
2017-08-04T08:43:03.657Z,58.12
2017-08-04T08:43:43.895Z,58.12
2017-08-04T08:44:24.353Z,58.12
2017-08-04T08:45:04.805Z,58.03
2017-08-04T08:45:45.265Z,58.12